sensor_id;sensor_type;location;lat;lon;timestamp;temperature;humidity
1880;DHT22;49285;49.002;8.390;2023-02-12T00:00:56;9.80;99.90
1880;DHT22;49285;49.002;8.390;2023-02-12T00:03:22;9.80;99.90
1880;DHT22;49285;49.002;8.390;2023-02-12T00:05:47;9.80;99.90
1880;DHT22;49285;49.002;8.390;2023-02-12T00:08:13;9.80;99.90
1880;DHT22;49285;49.002;8.390;2023-02-12T00:10:44;9.80;99.90
1880;DHT22;49285;49.002;8.390;2023-02-12T00:13:10;9.80;99.90
1880;DHT22;49285;49.002;8.390;2023-02-12T00:15:42;9.80;99.90
1880;DHT22;49285;49.002;8.390;2023-02-12T00:18:08;9.80;99.90
1880;DHT22;49285;49.002;8.390;2023-02-12T00:20:35;9.80;99.90
1880;DHT22;49285;49.002;8.390;2023-02-12T00:23:01;9.80;99.90
1880;DHT22;49285;49.002;8.390;2023-02-12T00:25:26;9.80;99.90
1880;DHT22;49285;49.002;8.390;2023-02-12T00:27:52;9.80;99.90
1880;DHT22;49285;49.002;8.390;2023-02-12T00:30:17;9.80;99.90
1880;DHT22;49285;49.002;8.390;2023-02-12T00:32:44;9.80;99.90
1880;DHT22;49285;49.002;8.390;2023-02-12T00:35:10;9.80;99.90
1880;DHT22;49285;49.002;8.390;2023-02-12T00:37:35;9.80;99.90
1880;DHT22;49285;49.002;8.390;2023-02-12T00:40:01;9.80;99.90
1880;DHT22;49285;49.002;8.390;2023-02-12T00:42:26;9.90;99.90
1880;DHT22;49285;49.002;8.390;2023-02-12T00:44:52;9.80;99.90
1880;DHT22;49285;49.002;8.390;2023-02-12T00:47:17;9.80;99.90
1880;DHT22;49285;49.002;8.390;2023-02-12T00:49:43;9.80;99.90
1880;DHT22;49285;49.002;8.390;2023-02-12T00:52:09;9.80;99.90
1880;DHT22;49285;49.002;8.390;2023-02-12T00:54:34;9.80;99.90
1880;DHT22;49285;49.002;8.390;2023-02-12T00:57:00;9.80;99.90
1880;DHT22;49285;49.002;8.390;2023-02-12T00:59:26;9.80;99.90
1880;DHT22;49285;49.002;8.390;2023-02-12T01:01:53;9.80;99.90
1880;DHT22;49285;49.002;8.390;2023-02-12T01:04:19;9.80;99.90
1880;DHT22;49285;49.002;8.390;2023-02-12T01:06:45;9.80;99.90
1880;DHT22;49285;49.002;8.390;2023-02-12T01:09:11;9.80;99.90
1880;DHT22;49285;49.002;8.390;2023-02-12T01:11:37;9.80;99.90
1880;DHT22;49285;49.002;8.390;2023-02-12T01:14:03;9.80;99.90
1880;DHT22;49285;49.002;8.390;2023-02-12T01:16:29;9.80;99.90
1880;DHT22;49285;49.002;8.390;2023-02-12T01:18:58;9.80;99.90
1880;DHT22;49285;49.002;8.390;2023-02-12T01:21:26;9.80;99.90
1880;DHT22;49285;49.002;8.390;2023-02-12T01:23:52;9.80;99.90
1880;DHT22;49285;49.002;8.390;2023-02-12T01:26:19;9.80;99.90
1880;DHT22;49285;49.002;8.390;2023-02-12T01:28:49;9.80;99.90
1880;DHT22;49285;49.002;8.390;2023-02-12T01:31:18;9.80;99.90
1880;DHT22;49285;49.002;8.390;2023-02-12T01:33:46;9.80;99.90
1880;DHT22;49285;49.002;8.390;2023-02-12T01:36:12;9.80;99.90
1880;DHT22;49285;49.002;8.390;2023-02-12T01:38:38;9.80;99.90
1880;DHT22;49285;49.002;8.390;2023-02-12T01:41:07;9.80;99.90
1880;DHT22;49285;49.002;8.390;2023-02-12T01:43:36;9.80;99.90
1880;DHT22;49285;49.002;8.390;2023-02-12T01:46:02;9.80;99.90
1880;DHT22;49285;49.002;8.390;2023-02-12T01:48:32;9.80;99.90
1880;DHT22;49285;49.002;8.390;2023-02-12T01:50:59;9.80;99.90
1880;DHT22;49285;49.002;8.390;2023-02-12T01:53:30;9.70;99.90
1880;DHT22;49285;49.002;8.390;2023-02-12T01:55:58;9.80;99.90
1880;DHT22;49285;49.002;8.390;2023-02-12T01:58:26;9.70;99.90
1880;DHT22;49285;49.002;8.390;2023-02-12T02:00:53;9.70;99.90
1880;DHT22;49285;49.002;8.390;2023-02-12T02:03:19;9.70;99.90
1880;DHT22;49285;49.002;8.390;2023-02-12T02:05:58;9.70;99.90
1880;DHT22;49285;49.002;8.390;2023-02-12T02:08:25;9.70;99.90
1880;DHT22;49285;49.002;8.390;2023-02-12T02:10:51;9.70;99.90
1880;DHT22;49285;49.002;8.390;2023-02-12T02:13:17;9.70;99.90
1880;DHT22;49285;49.002;8.390;2023-02-12T02:16:09;9.70;99.90
1880;DHT22;49285;49.002;8.390;2023-02-12T02:18:50;9.60;99.90
1880;DHT22;49285;49.002;8.390;2023-02-12T02:21:18;9.60;99.90
1880;DHT22;49285;49.002;8.390;2023-02-12T02:32:40;9.60;99.90
1880;DHT22;49285;49.002;8.390;2023-02-12T02:35:17;9.60;99.90
1880;DHT22;49285;49.002;8.390;2023-02-12T02:37:50;9.60;99.90
1880;DHT22;49285;49.002;8.390;2023-02-12T02:40:25;9.60;99.90
1880;DHT22;49285;49.002;8.390;2023-02-12T02:43:06;9.60;99.90
1880;DHT22;49285;49.002;8.390;2023-02-12T02:45:53;9.60;99.90
1880;DHT22;49285;49.002;8.390;2023-02-12T02:48:25;9.60;99.90
1880;DHT22;49285;49.002;8.390;2023-02-12T02:50:55;9.60;99.90
1880;DHT22;49285;49.002;8.390;2023-02-12T02:53:31;9.60;99.90
1880;DHT22;49285;49.002;8.390;2023-02-12T02:56:00;9.60;99.90
1880;DHT22;49285;49.002;8.390;2023-02-12T02:58:33;9.60;99.90
1880;DHT22;49285;49.002;8.390;2023-02-12T03:01:19;9.60;99.90
1880;DHT22;49285;49.002;8.390;2023-02-12T03:06:53;9.60;99.90
1880;DHT22;49285;49.002;8.390;2023-02-12T03:09:28;9.60;99.90
1880;DHT22;49285;49.002;8.390;2023-02-12T03:11:58;9.60;99.90
1880;DHT22;49285;49.002;8.390;2023-02-12T03:14:30;9.60;99.90
1880;DHT22;49285;49.002;8.390;2023-02-12T03:20:06;9.60;99.90
1880;DHT22;49285;49.002;8.390;2023-02-12T03:22:38;9.60;99.90
1880;DHT22;49285;49.002;8.390;2023-02-12T03:25:15;9.60;99.90
1880;DHT22;49285;49.002;8.390;2023-02-12T03:27:45;9.60;99.90
1880;DHT22;49285;49.002;8.390;2023-02-12T03:30:12;9.60;99.90
1880;DHT22;49285;49.002;8.390;2023-02-12T03:33:09;9.50;99.90
1880;DHT22;49285;49.002;8.390;2023-02-12T03:35:51;9.50;99.90
1880;DHT22;49285;49.002;8.390;2023-02-12T03:38:43;9.50;99.90
1880;DHT22;49285;49.002;8.390;2023-02-12T03:41:34;9.50;99.90
1880;DHT22;49285;49.002;8.390;2023-02-12T03:44:10;9.50;99.90
1880;DHT22;49285;49.002;8.390;2023-02-12T03:46:43;9.50;99.90
1880;DHT22;49285;49.002;8.390;2023-02-12T03:49:26;9.50;99.90
1880;DHT22;49285;49.002;8.390;2023-02-12T03:51:53;9.50;99.90
1880;DHT22;49285;49.002;8.390;2023-02-12T03:54:20;9.50;99.90
1880;DHT22;49285;49.002;8.390;2023-02-12T03:56:56;9.50;99.90
1880;DHT22;49285;49.002;8.390;2023-02-12T03:59:24;9.50;99.90
1880;DHT22;49285;49.002;8.390;2023-02-12T04:01:52;9.50;99.90
1880;DHT22;49285;49.002;8.390;2023-02-12T04:04:19;9.50;99.90
1880;DHT22;49285;49.002;8.390;2023-02-12T04:06:46;9.50;99.90
1880;DHT22;49285;49.002;8.390;2023-02-12T04:09:14;9.50;99.90
1880;DHT22;49285;49.002;8.390;2023-02-12T04:30:34;9.40;99.90
1880;DHT22;49285;49.002;8.390;2023-02-12T04:33:03;9.40;99.90
1880;DHT22;49285;49.002;8.390;2023-02-12T04:35:46;9.40;99.90
1880;DHT22;49285;49.002;8.390;2023-02-12T04:38:21;9.40;99.90
1880;DHT22;49285;49.002;8.390;2023-02-12T04:40:48;9.30;99.90
1880;DHT22;49285;49.002;8.390;2023-02-12T04:43:14;9.30;99.90
1880;DHT22;49285;49.002;8.390;2023-02-12T04:45:39;9.30;99.90
1880;DHT22;49285;49.002;8.390;2023-02-12T04:48:05;9.30;99.90
1880;DHT22;49285;49.002;8.390;2023-02-12T04:50:40;9.30;99.90
1880;DHT22;49285;49.002;8.390;2023-02-12T04:53:06;9.30;99.90
1880;DHT22;49285;49.002;8.390;2023-02-12T04:55:31;9.30;99.90
1880;DHT22;49285;49.002;8.390;2023-02-12T04:57:57;9.30;99.90
1880;DHT22;49285;49.002;8.390;2023-02-12T05:00:23;9.30;99.90
1880;DHT22;49285;49.002;8.390;2023-02-12T05:02:48;9.30;99.90
1880;DHT22;49285;49.002;8.390;2023-02-12T05:05:14;9.30;99.90
1880;DHT22;49285;49.002;8.390;2023-02-12T05:07:40;9.30;99.90
1880;DHT22;49285;49.002;8.390;2023-02-12T05:10:06;9.30;99.90
1880;DHT22;49285;49.002;8.390;2023-02-12T05:12:31;9.30;99.90
1880;DHT22;49285;49.002;8.390;2023-02-12T05:14:57;9.30;99.90
1880;DHT22;49285;49.002;8.390;2023-02-12T05:17:23;9.30;99.90
1880;DHT22;49285;49.002;8.390;2023-02-12T05:19:49;9.30;99.90
1880;DHT22;49285;49.002;8.390;2023-02-12T05:22:14;9.30;99.90
1880;DHT22;49285;49.002;8.390;2023-02-12T05:24:40;9.30;99.90
1880;DHT22;49285;49.002;8.390;2023-02-12T05:27:06;9.30;99.90
1880;DHT22;49285;49.002;8.390;2023-02-12T05:29:33;9.30;99.90
1880;DHT22;49285;49.002;8.390;2023-02-12T05:31:59;9.30;99.90
1880;DHT22;49285;49.002;8.390;2023-02-12T05:34:24;9.30;99.90
1880;DHT22;49285;49.002;8.390;2023-02-12T05:36:50;9.30;99.90
1880;DHT22;49285;49.002;8.390;2023-02-12T05:39:16;9.30;99.90
1880;DHT22;49285;49.002;8.390;2023-02-12T05:41:41;9.30;99.90
1880;DHT22;49285;49.002;8.390;2023-02-12T05:44:07;9.30;99.90
1880;DHT22;49285;49.002;8.390;2023-02-12T05:46:35;9.30;99.90
1880;DHT22;49285;49.002;8.390;2023-02-12T05:49:01;9.20;99.90
1880;DHT22;49285;49.002;8.390;2023-02-12T05:51:27;9.20;99.90
1880;DHT22;49285;49.002;8.390;2023-02-12T05:54:01;9.20;99.90
1880;DHT22;49285;49.002;8.390;2023-02-12T05:56:33;9.20;99.90
1880;DHT22;49285;49.002;8.390;2023-02-12T05:59:10;9.30;99.90
1880;DHT22;49285;49.002;8.390;2023-02-12T06:01:42;9.30;99.90
1880;DHT22;49285;49.002;8.390;2023-02-12T06:04:14;9.30;99.90
1880;DHT22;49285;49.002;8.390;2023-02-12T06:06:40;9.30;99.90
1880;DHT22;49285;49.002;8.390;2023-02-12T06:09:07;9.30;99.90
1880;DHT22;49285;49.002;8.390;2023-02-12T06:11:32;9.30;99.90
1880;DHT22;49285;49.002;8.390;2023-02-12T06:14:01;9.30;99.90
1880;DHT22;49285;49.002;8.390;2023-02-12T06:16:27;9.20;99.90
1880;DHT22;49285;49.002;8.390;2023-02-12T06:18:54;9.30;99.90
1880;DHT22;49285;49.002;8.390;2023-02-12T06:21:21;9.20;99.90
1880;DHT22;49285;49.002;8.390;2023-02-12T06:23:48;9.20;99.90
1880;DHT22;49285;49.002;8.390;2023-02-12T06:26:13;9.30;99.90
1880;DHT22;49285;49.002;8.390;2023-02-12T06:28:39;9.30;99.90
1880;DHT22;49285;49.002;8.390;2023-02-12T06:31:24;9.30;99.90
1880;DHT22;49285;49.002;8.390;2023-02-12T06:33:51;9.30;99.90
1880;DHT22;49285;49.002;8.390;2023-02-12T06:36:18;9.30;99.90
1880;DHT22;49285;49.002;8.390;2023-02-12T06:38:44;9.30;99.90
1880;DHT22;49285;49.002;8.390;2023-02-12T06:41:10;9.30;99.90
1880;DHT22;49285;49.002;8.390;2023-02-12T06:43:36;9.30;99.90
1880;DHT22;49285;49.002;8.390;2023-02-12T06:46:02;9.30;99.90
1880;DHT22;49285;49.002;8.390;2023-02-12T06:48:29;9.30;99.90
1880;DHT22;49285;49.002;8.390;2023-02-12T06:50:54;9.30;99.90
1880;DHT22;49285;49.002;8.390;2023-02-12T06:53:20;9.30;99.90
1880;DHT22;49285;49.002;8.390;2023-02-12T06:55:45;9.30;99.90
1880;DHT22;49285;49.002;8.390;2023-02-12T06:58:11;9.30;99.90
1880;DHT22;49285;49.002;8.390;2023-02-12T07:00:37;9.30;99.90
1880;DHT22;49285;49.002;8.390;2023-02-12T07:03:02;9.30;99.90
1880;DHT22;49285;49.002;8.390;2023-02-12T07:05:28;9.20;99.90
1880;DHT22;49285;49.002;8.390;2023-02-12T07:07:53;9.20;99.90
1880;DHT22;49285;49.002;8.390;2023-02-12T07:10:19;9.20;99.90
1880;DHT22;49285;49.002;8.390;2023-02-12T07:12:45;9.20;99.90
1880;DHT22;49285;49.002;8.390;2023-02-12T07:15:11;9.20;99.90
1880;DHT22;49285;49.002;8.390;2023-02-12T07:17:37;9.20;99.90
1880;DHT22;49285;49.002;8.390;2023-02-12T07:20:03;9.20;99.90
1880;DHT22;49285;49.002;8.390;2023-02-12T07:22:29;9.20;99.90
1880;DHT22;49285;49.002;8.390;2023-02-12T07:24:55;9.20;99.90
1880;DHT22;49285;49.002;8.390;2023-02-12T07:27:20;9.20;99.90
1880;DHT22;49285;49.002;8.390;2023-02-12T07:29:46;9.20;99.90
1880;DHT22;49285;49.002;8.390;2023-02-12T07:32:11;9.30;99.90
1880;DHT22;49285;49.002;8.390;2023-02-12T07:34:37;9.30;99.90
1880;DHT22;49285;49.002;8.390;2023-02-12T07:37:02;9.20;99.90
1880;DHT22;49285;49.002;8.390;2023-02-12T07:39:28;9.30;99.90
1880;DHT22;49285;49.002;8.390;2023-02-12T07:41:55;9.20;99.90
1880;DHT22;49285;49.002;8.390;2023-02-12T07:44:20;9.20;99.90
1880;DHT22;49285;49.002;8.390;2023-02-12T07:46:47;9.20;99.90
1880;DHT22;49285;49.002;8.390;2023-02-12T07:49:17;9.20;99.90
1880;DHT22;49285;49.002;8.390;2023-02-12T07:51:43;9.30;99.90
1880;DHT22;49285;49.002;8.390;2023-02-12T07:54:10;9.30;99.90
1880;DHT22;49285;49.002;8.390;2023-02-12T07:56:37;9.30;99.90
1880;DHT22;49285;49.002;8.390;2023-02-12T07:59:10;9.30;99.90
1880;DHT22;49285;49.002;8.390;2023-02-12T08:01:38;9.30;99.90
1880;DHT22;49285;49.002;8.390;2023-02-12T08:04:06;9.40;99.90
1880;DHT22;49285;49.002;8.390;2023-02-12T08:06:35;9.40;99.90
1880;DHT22;49285;49.002;8.390;2023-02-12T08:09:03;9.40;99.90
1880;DHT22;49285;49.002;8.390;2023-02-12T08:11:29;9.40;99.90
1880;DHT22;49285;49.002;8.390;2023-02-12T08:13:56;9.40;99.90
1880;DHT22;49285;49.002;8.390;2023-02-12T08:16:24;9.50;99.90
1880;DHT22;49285;49.002;8.390;2023-02-12T08:18:50;9.50;99.90
1880;DHT22;49285;49.002;8.390;2023-02-12T08:21:18;9.50;99.90
1880;DHT22;49285;49.002;8.390;2023-02-12T08:23:45;9.50;99.90
1880;DHT22;49285;49.002;8.390;2023-02-12T08:26:15;9.50;99.90
1880;DHT22;49285;49.002;8.390;2023-02-12T08:28:46;9.50;99.90
1880;DHT22;49285;49.002;8.390;2023-02-12T08:31:18;9.50;99.90
1880;DHT22;49285;49.002;8.390;2023-02-12T08:33:45;9.50;99.90
1880;DHT22;49285;49.002;8.390;2023-02-12T08:36:13;9.50;99.90
1880;DHT22;49285;49.002;8.390;2023-02-12T08:38:40;9.50;99.90
1880;DHT22;49285;49.002;8.390;2023-02-12T08:41:14;9.60;99.90
1880;DHT22;49285;49.002;8.390;2023-02-12T08:43:41;9.60;99.90
1880;DHT22;49285;49.002;8.390;2023-02-12T08:46:19;9.70;99.90
1880;DHT22;49285;49.002;8.390;2023-02-12T08:48:45;9.80;99.90
1880;DHT22;49285;49.002;8.390;2023-02-12T08:51:19;9.80;99.90
1880;DHT22;49285;49.002;8.390;2023-02-12T08:53:47;9.90;99.90
1880;DHT22;49285;49.002;8.390;2023-02-12T08:56:14;10.00;99.90
1880;DHT22;49285;49.002;8.390;2023-02-12T08:58:41;10.10;99.90
1880;DHT22;49285;49.002;8.390;2023-02-12T09:01:14;10.20;99.90
1880;DHT22;49285;49.002;8.390;2023-02-12T09:03:40;10.30;99.90
1880;DHT22;49285;49.002;8.390;2023-02-12T09:06:07;10.40;99.90
1880;DHT22;49285;49.002;8.390;2023-02-12T09:08:34;10.50;99.90
1880;DHT22;49285;49.002;8.390;2023-02-12T09:11:04;10.50;99.90
1880;DHT22;49285;49.002;8.390;2023-02-12T09:13:30;10.50;99.90
1880;DHT22;49285;49.002;8.390;2023-02-12T09:15:56;10.60;99.90
1880;DHT22;49285;49.002;8.390;2023-02-12T09:18:21;10.70;99.90
1880;DHT22;49285;49.002;8.390;2023-02-12T09:20:47;10.70;99.90
1880;DHT22;49285;49.002;8.390;2023-02-12T09:23:13;10.80;99.90
1880;DHT22;49285;49.002;8.390;2023-02-12T09:25:41;10.90;99.90
1880;DHT22;49285;49.002;8.390;2023-02-12T09:28:07;10.90;99.90
1880;DHT22;49285;49.002;8.390;2023-02-12T09:30:33;11.00;99.90
1880;DHT22;49285;49.002;8.390;2023-02-12T09:32:58;11.10;99.90
1880;DHT22;49285;49.002;8.390;2023-02-12T09:35:24;11.20;99.90
1880;DHT22;49285;49.002;8.390;2023-02-12T09:37:51;11.30;99.90
1880;DHT22;49285;49.002;8.390;2023-02-12T09:40:22;11.40;99.90
1880;DHT22;49285;49.002;8.390;2023-02-12T09:43:17;11.40;99.90
1880;DHT22;49285;49.002;8.390;2023-02-12T09:45:54;11.50;99.90
1880;DHT22;49285;49.002;8.390;2023-02-12T09:51:11;11.60;99.90
1880;DHT22;49285;49.002;8.390;2023-02-12T09:53:41;11.60;99.90
1880;DHT22;49285;49.002;8.390;2023-02-12T09:56:19;11.70;99.90
1880;DHT22;49285;49.002;8.390;2023-02-12T09:58:54;11.70;99.90
1880;DHT22;49285;49.002;8.390;2023-02-12T10:01:21;11.80;99.90
1880;DHT22;49285;49.002;8.390;2023-02-12T10:03:50;11.80;99.90
1880;DHT22;49285;49.002;8.390;2023-02-12T10:06:20;11.80;99.90
1880;DHT22;49285;49.002;8.390;2023-02-12T10:14:37;11.90;99.90
1880;DHT22;49285;49.002;8.390;2023-02-12T10:22:42;12.00;99.90
1880;DHT22;49285;49.002;8.390;2023-02-12T10:25:21;12.00;99.90
1880;DHT22;49285;49.002;8.390;2023-02-12T10:27:50;12.00;99.90
1880;DHT22;49285;49.002;8.390;2023-02-12T10:30:44;12.10;99.90
1880;DHT22;49285;49.002;8.390;2023-02-12T10:33:25;12.10;99.90
1880;DHT22;49285;49.002;8.390;2023-02-12T10:38:42;12.20;99.90
1880;DHT22;49285;49.002;8.390;2023-02-12T10:41:12;12.30;99.90
1880;DHT22;49285;49.002;8.390;2023-02-12T10:43:40;12.30;99.90
1880;DHT22;49285;49.002;8.390;2023-02-12T10:46:05;12.30;99.90
1880;DHT22;49285;49.002;8.390;2023-02-12T10:48:35;12.30;99.90
1880;DHT22;49285;49.002;8.390;2023-02-12T10:53:39;12.40;99.90
1880;DHT22;49285;49.002;8.390;2023-02-12T10:58:42;12.40;99.90
1880;DHT22;49285;49.002;8.390;2023-02-12T11:01:21;12.40;99.90
1880;DHT22;49285;49.002;8.390;2023-02-12T11:03:47;12.40;99.90
1880;DHT22;49285;49.002;8.390;2023-02-12T11:06:19;12.40;99.90
1880;DHT22;49285;49.002;8.390;2023-02-12T11:08:45;12.50;99.90
1880;DHT22;49285;49.002;8.390;2023-02-12T11:11:29;12.60;99.90
1880;DHT22;49285;49.002;8.390;2023-02-12T11:13:56;12.60;99.90
1880;DHT22;49285;49.002;8.390;2023-02-12T11:16:28;12.60;99.90
1880;DHT22;49285;49.002;8.390;2023-02-12T11:18:59;12.70;99.90
1880;DHT22;49285;49.002;8.390;2023-02-12T11:21:25;12.80;99.90
1880;DHT22;49285;49.002;8.390;2023-02-12T11:23:51;12.80;99.90
1880;DHT22;49285;49.002;8.390;2023-02-12T11:29:02;12.60;99.90
1880;DHT22;49285;49.002;8.390;2023-02-12T11:31:33;12.70;99.90
1880;DHT22;49285;49.002;8.390;2023-02-12T11:36:40;12.90;99.90
1880;DHT22;49285;49.002;8.390;2023-02-12T11:41:52;13.00;99.90
1880;DHT22;49285;49.002;8.390;2023-02-12T11:46:52;13.10;99.90
1880;DHT22;49285;49.002;8.390;2023-02-12T11:49:26;13.10;99.90
1880;DHT22;49285;49.002;8.390;2023-02-12T11:51:53;13.20;99.90
1880;DHT22;49285;49.002;8.390;2023-02-12T11:54:25;13.20;99.90
1880;DHT22;49285;49.002;8.390;2023-02-12T11:56:52;13.20;99.90
1880;DHT22;49285;49.002;8.390;2023-02-12T11:59:41;13.20;99.90
1880;DHT22;49285;49.002;8.390;2023-02-12T12:02:22;13.30;99.90
1880;DHT22;49285;49.002;8.390;2023-02-12T12:04:51;13.20;99.90
1880;DHT22;49285;49.002;8.390;2023-02-12T12:07:23;13.20;99.90
1880;DHT22;49285;49.002;8.390;2023-02-12T12:10:06;13.20;99.90
1880;DHT22;49285;49.002;8.390;2023-02-12T12:12:42;13.30;99.90
1880;DHT22;49285;49.002;8.390;2023-02-12T12:15:29;13.40;99.90
1880;DHT22;49285;49.002;8.390;2023-02-12T12:18:49;13.50;99.90
1880;DHT22;49285;49.002;8.390;2023-02-12T12:21:44;13.70;99.90
1880;DHT22;49285;49.002;8.390;2023-02-12T12:24:51;14.10;99.90
1880;DHT22;49285;49.002;8.390;2023-02-12T12:33:05;14.90;99.90
1880;DHT22;49285;49.002;8.390;2023-02-12T12:35:44;14.70;99.90
1880;DHT22;49285;49.002;8.390;2023-02-12T12:39:08;14.90;99.90
1880;DHT22;49285;49.002;8.390;2023-02-12T12:41:30;14.90;99.90
1880;DHT22;49285;49.002;8.390;2023-02-12T12:44:32;15.20;99.90
1880;DHT22;49285;49.002;8.390;2023-02-12T12:55:37;16.00;99.90
1880;DHT22;49285;49.002;8.390;2023-02-12T13:06:18;16.50;99.90
1880;DHT22;49285;49.002;8.390;2023-02-12T13:09:56;16.60;99.90
1880;DHT22;49285;49.002;8.390;2023-02-12T13:12:16;16.70;99.90
1880;DHT22;49285;49.002;8.390;2023-02-12T13:15:08;16.70;99.90
1880;DHT22;49285;49.002;8.390;2023-02-12T13:17:43;16.90;99.90
1880;DHT22;49285;49.002;8.390;2023-02-12T13:20:19;17.00;99.90
1880;DHT22;49285;49.002;8.390;2023-02-12T13:27:50;17.10;99.90
1880;DHT22;49285;49.002;8.390;2023-02-12T13:33:13;17.00;99.90
1880;DHT22;49285;49.002;8.390;2023-02-12T13:35:44;17.10;99.90
1880;DHT22;49285;49.002;8.390;2023-02-12T13:38:18;17.10;99.90
1880;DHT22;49285;49.002;8.390;2023-02-12T13:40:46;17.10;99.90
1880;DHT22;49285;49.002;8.390;2023-02-12T13:46:18;16.80;99.90
1880;DHT22;49285;49.002;8.390;2023-02-12T13:49:03;16.70;99.90
1880;DHT22;49285;49.002;8.390;2023-02-12T13:56:52;16.90;99.90
1880;DHT22;49285;49.002;8.390;2023-02-12T14:02:03;17.00;99.90
1880;DHT22;49285;49.002;8.390;2023-02-12T14:04:36;17.10;99.90
1880;DHT22;49285;49.002;8.390;2023-02-12T14:07:12;17.20;99.90
1880;DHT22;49285;49.002;8.390;2023-02-12T14:10:00;17.10;99.90
1880;DHT22;49285;49.002;8.390;2023-02-12T14:12:35;17.00;99.90
1880;DHT22;49285;49.002;8.390;2023-02-12T14:15:09;17.00;99.90
1880;DHT22;49285;49.002;8.390;2023-02-12T14:20:26;17.00;99.90
1880;DHT22;49285;49.002;8.390;2023-02-12T14:26:14;17.10;99.90
1880;DHT22;49285;49.002;8.390;2023-02-12T14:28:46;17.00;99.90
1880;DHT22;49285;49.002;8.390;2023-02-12T14:33:42;17.10;99.90
1880;DHT22;49285;49.002;8.390;2023-02-12T14:41:50;16.90;99.90
1880;DHT22;49285;49.002;8.390;2023-02-12T14:47:13;16.90;99.90
1880;DHT22;49285;49.002;8.390;2023-02-12T14:50:05;16.90;99.90
1880;DHT22;49285;49.002;8.390;2023-02-12T14:52:38;16.90;99.90
1880;DHT22;49285;49.002;8.390;2023-02-12T14:55:16;17.00;99.90
1880;DHT22;49285;49.002;8.390;2023-02-12T14:57:42;16.80;99.90
1880;DHT22;49285;49.002;8.390;2023-02-12T15:02:51;16.70;99.90
1880;DHT22;49285;49.002;8.390;2023-02-12T15:08:00;16.60;99.90
1880;DHT22;49285;49.002;8.390;2023-02-12T15:18:43;16.30;99.90
1880;DHT22;49285;49.002;8.390;2023-02-12T15:21:22;16.20;99.90
1880;DHT22;49285;49.002;8.390;2023-02-12T15:24:08;16.10;99.90
1880;DHT22;49285;49.002;8.390;2023-02-12T15:26:39;16.10;99.90
1880;DHT22;49285;49.002;8.390;2023-02-12T15:29:12;16.00;99.90
1880;DHT22;49285;49.002;8.390;2023-02-12T15:31:40;15.90;99.90
1880;DHT22;49285;49.002;8.390;2023-02-12T15:34:06;15.80;99.90
1880;DHT22;49285;49.002;8.390;2023-02-12T15:36:32;15.70;99.90
1880;DHT22;49285;49.002;8.390;2023-02-12T15:39:02;15.60;99.90
1880;DHT22;49285;49.002;8.390;2023-02-12T15:43:57;15.40;99.90
1880;DHT22;49285;49.002;8.390;2023-02-12T15:46:23;15.20;99.90
1880;DHT22;49285;49.002;8.390;2023-02-12T15:48:49;15.20;99.90
1880;DHT22;49285;49.002;8.390;2023-02-12T15:53:46;15.00;99.90
1880;DHT22;49285;49.002;8.390;2023-02-12T15:56:17;14.90;99.90
1880;DHT22;49285;49.002;8.390;2023-02-12T15:58:55;14.90;99.90
1880;DHT22;49285;49.002;8.390;2023-02-12T16:01:27;14.70;99.90
1880;DHT22;49285;49.002;8.390;2023-02-12T16:03:59;14.60;99.90
1880;DHT22;49285;49.002;8.390;2023-02-12T16:06:27;14.50;99.90
1880;DHT22;49285;49.002;8.390;2023-02-12T16:09:08;14.40;99.90
1880;DHT22;49285;49.002;8.390;2023-02-12T16:11:37;14.40;99.90
1880;DHT22;49285;49.002;8.390;2023-02-12T16:14:07;14.30;99.90
1880;DHT22;49285;49.002;8.390;2023-02-12T16:16:45;14.20;99.90
1880;DHT22;49285;49.002;8.390;2023-02-12T16:19:23;14.10;99.90
1880;DHT22;49285;49.002;8.390;2023-02-12T16:24:48;14.00;99.90
1880;DHT22;49285;49.002;8.390;2023-02-12T16:29:46;13.80;99.90
1880;DHT22;49285;49.002;8.390;2023-02-12T16:32:32;13.80;99.90
1880;DHT22;49285;49.002;8.390;2023-02-12T16:42:33;13.50;99.90
1880;DHT22;49285;49.002;8.390;2023-02-12T16:44:58;13.50;99.90
1880;DHT22;49285;49.002;8.390;2023-02-12T16:47:24;13.40;99.90
1880;DHT22;49285;49.002;8.390;2023-02-12T16:49:53;13.40;99.90
1880;DHT22;49285;49.002;8.390;2023-02-12T16:54:52;13.30;99.90
1880;DHT22;49285;49.002;8.390;2023-02-12T16:57:18;13.20;99.90
1880;DHT22;49285;49.002;8.390;2023-02-12T16:59:43;13.20;99.90
1880;DHT22;49285;49.002;8.390;2023-02-12T17:02:11;13.10;99.90
1880;DHT22;49285;49.002;8.390;2023-02-12T17:04:37;13.10;99.90
1880;DHT22;49285;49.002;8.390;2023-02-12T17:07:04;13.00;99.90
1880;DHT22;49285;49.002;8.390;2023-02-12T17:09:34;13.00;99.90
1880;DHT22;49285;49.002;8.390;2023-02-12T17:11:59;13.00;99.90
1880;DHT22;49285;49.002;8.390;2023-02-12T17:14:25;12.90;99.90
1880;DHT22;49285;49.002;8.390;2023-02-12T17:16:50;12.90;99.90
1880;DHT22;49285;49.002;8.390;2023-02-12T17:19:16;12.80;99.90
1880;DHT22;49285;49.002;8.390;2023-02-12T17:21:43;12.80;99.90
1880;DHT22;49285;49.002;8.390;2023-02-12T17:24:26;12.70;99.90
1880;DHT22;49285;49.002;8.390;2023-02-12T17:26:52;12.70;99.90
1880;DHT22;49285;49.002;8.390;2023-02-12T17:29:21;12.70;99.90
1880;DHT22;49285;49.002;8.390;2023-02-12T17:31:47;12.60;99.90
1880;DHT22;49285;49.002;8.390;2023-02-12T17:34:14;12.60;99.90
1880;DHT22;49285;49.002;8.390;2023-02-12T17:36:39;12.60;99.90
1880;DHT22;49285;49.002;8.390;2023-02-12T17:39:07;12.50;99.90
1880;DHT22;49285;49.002;8.390;2023-02-12T17:41:33;12.50;99.90
1880;DHT22;49285;49.002;8.390;2023-02-12T17:43:59;12.40;99.90
1880;DHT22;49285;49.002;8.390;2023-02-12T17:46:26;12.40;99.90
1880;DHT22;49285;49.002;8.390;2023-02-12T17:48:52;12.40;99.90
1880;DHT22;49285;49.002;8.390;2023-02-12T17:51:18;12.40;99.90
1880;DHT22;49285;49.002;8.390;2023-02-12T17:53:44;12.30;99.90
1880;DHT22;49285;49.002;8.390;2023-02-12T17:56:12;12.30;99.90
1880;DHT22;49285;49.002;8.390;2023-02-12T17:58:40;12.20;99.90
1880;DHT22;49285;49.002;8.390;2023-02-12T18:01:08;12.20;99.90
1880;DHT22;49285;49.002;8.390;2023-02-12T18:03:34;12.20;99.90
1880;DHT22;49285;49.002;8.390;2023-02-12T18:05:59;12.20;99.90
1880;DHT22;49285;49.002;8.390;2023-02-12T18:08:25;12.10;99.90
1880;DHT22;49285;49.002;8.390;2023-02-12T18:10:51;12.10;99.90
1880;DHT22;49285;49.002;8.390;2023-02-12T18:13:16;12.10;99.90
1880;DHT22;49285;49.002;8.390;2023-02-12T18:15:42;12.00;99.90
1880;DHT22;49285;49.002;8.390;2023-02-12T18:18:08;12.00;99.90
1880;DHT22;49285;49.002;8.390;2023-02-12T18:20:34;12.00;99.90
1880;DHT22;49285;49.002;8.390;2023-02-12T18:23:00;11.90;99.90
1880;DHT22;49285;49.002;8.390;2023-02-12T18:25:27;11.90;99.90
1880;DHT22;49285;49.002;8.390;2023-02-12T18:27:53;11.80;99.90
1880;DHT22;49285;49.002;8.390;2023-02-12T18:30:19;11.80;99.90
1880;DHT22;49285;49.002;8.390;2023-02-12T18:32:44;11.80;99.90
1880;DHT22;49285;49.002;8.390;2023-02-12T18:35:10;11.80;99.90
1880;DHT22;49285;49.002;8.390;2023-02-12T18:37:35;11.70;99.90
1880;DHT22;49285;49.002;8.390;2023-02-12T18:40:01;11.70;99.90
1880;DHT22;49285;49.002;8.390;2023-02-12T18:42:27;11.70;99.90
1880;DHT22;49285;49.002;8.390;2023-02-12T18:44:53;11.60;99.90
1880;DHT22;49285;49.002;8.390;2023-02-12T18:47:19;11.60;99.90
1880;DHT22;49285;49.002;8.390;2023-02-12T18:49:45;11.60;99.90
1880;DHT22;49285;49.002;8.390;2023-02-12T18:52:10;11.50;99.90